Terminal Aerodrome Forecast
Issued by NWS Mt. Holly, NJ

Home | Current Version | Previous Version | Text Only | Print | Product List | Glossary On
Versions: 1 2 3 4 5 6 7 8 9 10 11 12 13 14 15 16 17
000
FTUS41 KPHI 301730
TAFRDG
TAF
KRDG 301730Z 3018/3118 24008KT P6SM SCT025 BKN045
      TEMPO 3018/3021 4SM -SHRA BR BKN025 OVC045
     FM302100 24006KT P6SM SCT045
     FM310300 31006KT P6SM SKC
     FM310600 VRB03KT P6SM SKC
      TEMPO 3108/3112 4SM BR
     FM311400 29008KT P6SM FEW045=

USA.gov is the U.S. government's official web portal to all federal, state and local government web resources and services.